createdAt,value
2022-12-03T00:01:35.264Z,4.67
2022-12-03T00:04:03.624Z,4.64
2022-12-03T00:06:34.828Z,4.61
2022-12-03T00:09:03.103Z,4.56
2022-12-03T00:11:31.346Z,4.55
2022-12-03T00:13:59.524Z,4.54
2022-12-03T00:16:27.773Z,4.52
2022-12-03T00:18:55.903Z,4.47
2022-12-03T00:21:24.890Z,4.40
2022-12-03T00:23:54.680Z,4.39
2022-12-03T00:26:22.908Z,4.38
2022-12-03T00:28:50.943Z,4.36
2022-12-03T00:31:21.539Z,4.36
2022-12-03T00:33:49.747Z,4.37
2022-12-03T00:36:17.748Z,4.40
2022-12-03T00:38:46.013Z,4.45
2022-12-03T00:41:15.495Z,4.47
2022-12-03T00:43:43.476Z,4.49
2022-12-03T00:46:11.507Z,4.44
2022-12-03T00:48:39.574Z,4.42
2022-12-03T00:51:07.898Z,4.42
2022-12-03T00:53:36.149Z,4.47
2022-12-03T00:56:04.196Z,4.50
2022-12-03T00:58:33.682Z,4.54
2022-12-03T01:01:01.710Z,4.54
2022-12-03T01:03:30.323Z,4.53
2022-12-03T01:05:58.410Z,4.53
2022-12-03T01:08:26.409Z,4.50
2022-12-03T01:10:54.495Z,4.53
2022-12-03T01:13:22.504Z,4.56
2022-12-03T01:15:51.999Z,4.58
2022-12-03T01:18:20.082Z,4.59
2022-12-03T01:20:48.090Z,4.63
2022-12-03T01:23:16.107Z,4.67
2022-12-03T01:25:44.199Z,4.65
2022-12-03T01:28:12.292Z,4.66
2022-12-03T01:30:54.135Z,4.67
2022-12-03T01:33:23.591Z,4.67
2022-12-03T01:35:51.608Z,4.66
2022-12-03T01:38:19.610Z,4.68
2022-12-03T01:40:49.055Z,4.67
2022-12-03T01:43:17.116Z,4.66
2022-12-03T01:45:45.215Z,4.66
2022-12-03T01:48:16.753Z,4.66
2022-12-03T01:50:46.698Z,4.64
2022-12-03T01:53:19.053Z,4.62
2022-12-03T01:55:49.079Z,4.57
2022-12-03T01:58:18.460Z,4.54
2022-12-03T02:00:46.528Z,4.55
2022-12-03T02:03:19.914Z,4.54
2022-12-03T02:05:49.309Z,4.55
2022-12-03T02:08:32.211Z,4.53
2022-12-03T02:11:03.932Z,4.55
2022-12-03T02:13:32.544Z,4.54
2022-12-03T02:16:00.665Z,4.56
2022-12-03T02:18:28.819Z,4.56
2022-12-03T02:21:05.033Z,4.53
2022-12-03T02:23:38.674Z,4.51
2022-12-03T02:26:08.333Z,4.50
2022-12-03T02:28:36.353Z,4.50
2022-12-03T02:31:05.257Z,4.47
2022-12-03T02:33:33.573Z,4.43
2022-12-03T02:36:03.944Z,4.41
2022-12-03T02:38:34.349Z,4.39
2022-12-03T02:41:06.181Z,4.40
2022-12-03T02:43:34.643Z,4.40
2022-12-03T02:46:04.956Z,4.42
2022-12-03T02:48:35.810Z,4.42
2022-12-03T02:51:06.562Z,4.40
2022-12-03T02:53:42.358Z,4.43
2022-12-03T02:56:13.401Z,4.42
2022-12-03T02:58:44.061Z,4.41
2022-12-03T03:01:12.767Z,4.39
2022-12-03T03:03:41.134Z,4.41
2022-12-03T03:06:10.657Z,4.43
2022-12-03T03:08:40.485Z,4.45
2022-12-03T03:11:09.008Z,4.43
2022-12-03T03:13:37.743Z,4.43
2022-12-03T03:16:09.087Z,4.44
2022-12-03T03:18:37.827Z,4.45
2022-12-03T03:21:06.345Z,4.47
2022-12-03T03:23:34.490Z,4.46
2022-12-03T03:26:05.951Z,4.44
2022-12-03T03:28:36.709Z,4.42
2022-12-03T03:31:08.690Z,4.39
2022-12-03T03:33:38.053Z,4.37
2022-12-03T03:36:07.960Z,4.37
2022-12-03T03:38:36.955Z,4.35
2022-12-03T03:41:07.086Z,4.33
2022-12-03T03:43:36.864Z,4.35
2022-12-03T03:46:05.993Z,4.36
2022-12-03T03:48:36.636Z,4.37
2022-12-03T03:51:09.585Z,4.37
2022-12-03T03:53:39.849Z,4.36
2022-12-03T03:56:08.774Z,4.37
2022-12-03T03:58:37.480Z,4.36
2022-12-03T04:01:05.705Z,4.35
2022-12-03T04:03:35.569Z,4.36
2022-12-03T04:06:04.000Z,4.36
2022-12-03T04:08:32.326Z,4.37
2022-12-03T04:11:17.840Z,4.34
2022-12-03T04:13:46.660Z,4.31
2022-12-03T04:16:14.800Z,4.29
2022-12-03T04:18:44.289Z,4.27
2022-12-03T04:21:31.213Z,4.24
2022-12-03T04:23:59.509Z,4.21
2022-12-03T04:26:45.520Z,4.21
2022-12-03T04:29:13.819Z,4.20
2022-12-03T04:31:59.566Z,4.16
2022-12-03T04:34:46.763Z,4.12
2022-12-03T04:37:14.786Z,4.09
2022-12-03T04:39:42.835Z,4.03
2022-12-03T04:42:10.925Z,3.99
2022-12-03T04:44:39.108Z,3.91
2022-12-03T04:47:10.486Z,3.85
2022-12-03T04:49:41.985Z,3.78
2022-12-03T04:52:10.578Z,3.76
2022-12-03T04:54:39.220Z,3.73
2022-12-03T04:57:08.203Z,3.70
2022-12-03T04:59:37.103Z,3.65
2022-12-03T05:02:06.164Z,3.60
2022-12-03T05:04:34.605Z,3.57
2022-12-03T05:07:04.609Z,3.51
2022-12-03T05:09:32.588Z,3.47
2022-12-03T05:12:00.571Z,3.43
2022-12-03T05:14:28.777Z,3.38
2022-12-03T05:17:12.108Z,3.37
2022-12-03T05:19:57.467Z,3.35
2022-12-03T05:22:26.885Z,3.32
2022-12-03T05:24:55.335Z,3.29
2022-12-03T05:27:24.408Z,3.26
2022-12-03T05:29:53.020Z,3.20
2022-12-03T05:32:21.544Z,3.15
2022-12-03T05:34:49.612Z,3.12
2022-12-03T05:37:17.688Z,3.09
2022-12-03T05:39:47.120Z,3.08
2022-12-03T05:42:32.676Z,3.08
2022-12-03T05:45:00.650Z,3.06
2022-12-03T05:47:28.683Z,3.05
2022-12-03T05:49:56.800Z,3.02
2022-12-03T05:52:24.794Z,2.97
2022-12-03T05:54:54.348Z,2.92
2022-12-03T05:57:22.491Z,2.88
2022-12-03T05:59:50.479Z,2.85
2022-12-03T06:02:18.692Z,2.83
2022-12-03T06:04:46.925Z,2.80
2022-12-03T06:07:14.956Z,2.79
2022-12-03T06:09:42.946Z,2.77
2022-12-03T06:12:12.618Z,2.79
2022-12-03T06:14:41.069Z,2.82
2022-12-03T06:17:09.201Z,2.84
2022-12-03T06:19:37.224Z,2.89
2022-12-03T06:22:05.254Z,2.92
2022-12-03T06:24:33.234Z,2.96
2022-12-03T06:27:01.256Z,3.00
2022-12-03T06:29:30.637Z,3.05
2022-12-03T06:31:58.710Z,3.08
2022-12-03T06:34:26.766Z,3.12
2022-12-03T06:36:54.838Z,3.17
2022-12-03T06:39:23.079Z,3.23
2022-12-03T06:41:51.113Z,3.28
2022-12-03T06:44:19.223Z,3.34
2022-12-03T06:46:49.361Z,3.41
2022-12-03T06:49:17.374Z,3.48
2022-12-03T06:51:45.367Z,3.55
2022-12-03T06:54:13.316Z,3.63
2022-12-03T06:56:45.179Z,3.72
2022-12-03T06:59:13.691Z,3.83
2022-12-03T07:01:41.962Z,3.97
2022-12-03T07:04:11.403Z,4.09
2022-12-03T07:06:39.502Z,4.24
2022-12-03T07:09:07.630Z,4.37
2022-12-03T07:11:40.420Z,4.52
2022-12-03T07:14:13.052Z,4.67
2022-12-03T07:16:43.475Z,4.84
2022-12-03T07:19:13.576Z,5.01
2022-12-03T07:21:41.626Z,5.16
2022-12-03T07:24:10.275Z,5.32
2022-12-03T07:26:38.347Z,5.49
2022-12-03T07:29:06.423Z,5.63
2022-12-03T07:31:34.606Z,5.75
2022-12-03T07:34:02.864Z,5.84
2022-12-03T07:36:32.326Z,5.94
2022-12-03T07:39:00.319Z,6.05
2022-12-03T07:41:28.333Z,6.15
2022-12-03T07:43:56.384Z,6.20
2022-12-03T07:46:24.503Z,6.21
2022-12-03T07:48:52.659Z,6.17
2022-12-03T07:51:20.697Z,6.15
2022-12-03T07:53:50.084Z,6.16
2022-12-03T07:56:18.177Z,6.08
2022-12-03T07:58:46.155Z,5.99
2022-12-03T08:01:14.259Z,5.94
2022-12-03T08:03:42.987Z,5.95
2022-12-03T08:06:11.255Z,5.95
2022-12-03T08:08:39.327Z,5.97
2022-12-03T08:11:13.994Z,6.08
2022-12-03T08:13:42.371Z,6.27
2022-12-03T08:16:17.174Z,6.37
2022-12-03T08:18:46.100Z,6.46
2022-12-03T08:21:15.746Z,6.52
2022-12-03T08:23:44.164Z,6.53
2022-12-03T08:26:22.902Z,6.47
2022-12-03T08:28:51.204Z,6.55
2022-12-03T08:31:27.937Z,6.67
2022-12-03T08:34:08.026Z,6.79
2022-12-03T08:36:36.528Z,6.86
2022-12-03T08:39:24.217Z,6.93
2022-12-03T08:42:14.782Z,7.00
2022-12-03T08:44:42.826Z,7.08
2022-12-03T08:47:15.344Z,7.09
2022-12-03T08:49:47.066Z,7.13
2022-12-03T08:52:18.838Z,7.19
2022-12-03T08:54:52.963Z,7.27
2022-12-03T08:57:28.359Z,7.32
2022-12-03T09:00:01.212Z,7.38
2022-12-03T09:02:33.045Z,7.45
2022-12-03T09:05:14.485Z,7.50
2022-12-03T09:07:42.608Z,7.60
2022-12-03T09:10:11.043Z,7.67
2022-12-03T09:12:40.470Z,7.69
2022-12-03T09:15:09.413Z,7.62
2022-12-03T09:17:38.255Z,7.59
2022-12-03T09:20:07.571Z,7.55
2022-12-03T09:22:35.899Z,7.60
2022-12-03T09:25:03.936Z,7.70
2022-12-03T09:27:31.917Z,7.81
2022-12-03T09:30:01.520Z,7.83
2022-12-03T09:32:29.704Z,7.82
2022-12-03T09:34:57.809Z,7.75
2022-12-03T09:37:25.807Z,7.69
2022-12-03T09:39:53.801Z,7.65
2022-12-03T09:42:22.200Z,7.64
2022-12-03T09:44:50.266Z,7.73
2022-12-03T09:47:20.229Z,7.78
2022-12-03T09:49:48.345Z,7.86
2022-12-03T09:52:27.411Z,7.87
2022-12-03T09:54:56.244Z,7.89
2022-12-03T09:57:24.582Z,7.98
2022-12-03T09:59:52.892Z,8.03
2022-12-03T10:02:25.766Z,8.03
2022-12-03T10:04:54.770Z,8.14
2022-12-03T10:07:23.623Z,8.17
2022-12-03T10:09:52.319Z,8.07
2022-12-03T10:12:24.683Z,8.05
2022-12-03T10:14:53.845Z,8.12
2022-12-03T10:17:23.572Z,8.18
2022-12-03T10:19:51.938Z,8.35
2022-12-03T10:22:20.107Z,8.47
2022-12-03T10:25:05.132Z,8.47
2022-12-03T10:27:33.202Z,8.47
2022-12-03T10:30:03.130Z,8.49
2022-12-03T10:32:43.960Z,8.43
2022-12-03T10:35:15.324Z,8.40
2022-12-03T10:37:59.341Z,8.40
2022-12-03T10:40:29.124Z,8.50
2022-12-03T10:43:16.148Z,8.65
2022-12-03T10:45:45.285Z,8.68
2022-12-03T10:48:16.511Z,8.63
2022-12-03T10:50:53.019Z,8.60
2022-12-03T10:53:22.952Z,8.66
2022-12-03T10:55:52.907Z,8.73
2022-12-03T10:58:23.935Z,8.80
2022-12-03T11:00:53.940Z,8.81
2022-12-03T11:03:25.160Z,8.74
2022-12-03T11:05:54.580Z,8.75
2022-12-03T11:08:25.219Z,8.77
2022-12-03T11:11:01.751Z,8.83
2022-12-03T11:13:44.918Z,8.90
2022-12-03T11:16:13.891Z,8.98
2022-12-03T11:19:03.500Z,9.00
2022-12-03T11:21:31.992Z,9.19
2022-12-03T11:24:22.127Z,9.24
2022-12-03T11:27:20.714Z,9.37
2022-12-03T11:30:00.496Z,9.50
2022-12-03T11:33:02.207Z,9.40
2022-12-03T11:35:54.303Z,9.37
2022-12-03T11:38:53.017Z,9.57
2022-12-03T11:41:24.332Z,9.80
2022-12-03T11:44:27.248Z,9.94
2022-12-03T11:46:55.889Z,9.97
2022-12-03T11:49:39.444Z,9.99
2022-12-03T11:52:30.544Z,10.12
2022-12-03T11:55:06.718Z,10.25
2022-12-03T11:57:37.617Z,10.38
2022-12-03T12:00:19.805Z,10.30
2022-12-03T12:02:49.238Z,10.20
2022-12-03T12:05:30.253Z,10.17
2022-12-03T12:08:00.765Z,10.24
2022-12-03T12:10:46.593Z,10.21
2022-12-03T12:13:55.585Z,10.27
2022-12-03T12:16:55.161Z,10.37
2022-12-03T12:19:37.692Z,10.32
2022-12-03T12:22:35.704Z,10.40
2022-12-03T12:25:06.911Z,10.32
2022-12-03T12:27:39.380Z,10.32
2022-12-03T12:30:10.840Z,10.34
2022-12-03T12:32:46.343Z,10.50
2022-12-03T12:35:17.672Z,10.64
2022-12-03T12:37:56.617Z,10.81
2022-12-03T12:40:30.573Z,10.80
2022-12-03T12:43:02.183Z,10.99
2022-12-03T12:45:37.542Z,11.57
2022-12-03T12:48:20.918Z,12.07
2022-12-03T12:50:51.816Z,12.38
2022-12-03T12:53:24.427Z,12.73
2022-12-03T12:55:57.660Z,13.04
2022-12-03T12:58:26.775Z,13.10
2022-12-03T13:00:56.234Z,12.93
2022-12-03T13:03:27.050Z,12.65
2022-12-03T13:05:57.682Z,12.65
2022-12-03T13:08:28.917Z,12.59
2022-12-03T13:10:59.710Z,12.48
2022-12-03T13:13:40.225Z,12.27
2022-12-03T13:16:17.044Z,12.18
2022-12-03T13:18:48.467Z,12.20
2022-12-03T13:21:40.485Z,12.25
2022-12-03T13:24:30.099Z,11.99
2022-12-03T13:27:10.252Z,11.77
2022-12-03T13:29:39.088Z,11.49
2022-12-03T13:32:20.117Z,11.22
2022-12-03T13:34:50.565Z,11.01
2022-12-03T13:37:22.269Z,10.74
2022-12-03T13:39:52.323Z,10.50
2022-12-03T13:42:42.791Z,10.18
2022-12-03T13:45:31.625Z,9.80
2022-12-03T13:48:01.891Z,9.47
2022-12-03T13:50:35.471Z,9.26
2022-12-03T13:53:10.965Z,9.08
2022-12-03T14:08:39.790Z,7.88
2022-12-03T14:11:08.101Z,7.88
2022-12-03T14:13:36.264Z,7.81
2022-12-03T14:16:04.437Z,7.68
2022-12-03T14:18:32.545Z,7.56
2022-12-03T14:21:00.523Z,7.43
2022-12-03T14:23:28.505Z,7.28
2022-12-03T14:25:57.872Z,7.11
2022-12-03T14:28:25.907Z,6.95
2022-12-03T14:30:53.894Z,6.81
2022-12-03T14:33:21.923Z,6.63
2022-12-03T14:35:53.412Z,6.49
2022-12-03T14:38:21.571Z,6.36
2022-12-03T14:40:49.548Z,6.24
2022-12-03T14:43:18.899Z,6.17
2022-12-03T14:45:46.909Z,6.08
2022-12-03T14:48:15.022Z,5.99
2022-12-03T14:50:43.058Z,5.90
2022-12-03T14:53:11.153Z,5.82
2022-12-03T14:55:39.232Z,5.74
2022-12-03T14:58:07.241Z,5.68
2022-12-03T15:00:36.611Z,5.62
2022-12-03T15:03:04.635Z,5.56
2022-12-03T15:05:32.631Z,5.51
2022-12-03T15:08:00.715Z,5.45
2022-12-03T15:10:28.699Z,5.39
2022-12-03T15:12:56.660Z,5.34
2022-12-03T15:15:24.680Z,5.28
2022-12-03T15:17:54.063Z,5.24
2022-12-03T15:20:22.066Z,5.22
2022-12-03T15:22:50.006Z,5.16
2022-12-03T15:25:24.248Z,5.13
2022-12-03T15:27:52.456Z,5.08
2022-12-03T15:30:20.733Z,5.03
2022-12-03T15:32:48.747Z,5.00
2022-12-03T15:35:18.805Z,4.95
2022-12-03T15:37:51.693Z,4.93
2022-12-03T15:40:19.608Z,4.90
2022-12-03T15:42:47.534Z,4.84
2022-12-03T15:45:15.759Z,4.83
2022-12-03T15:47:43.760Z,4.83
2022-12-03T15:50:12.857Z,4.80
2022-12-03T15:52:42.203Z,4.78
2022-12-03T15:55:10.859Z,4.78
2022-12-03T15:57:38.997Z,4.78
2022-12-03T16:00:08.379Z,4.82
2022-12-03T16:02:36.476Z,4.83
2022-12-03T16:05:06.541Z,4.82
2022-12-03T16:07:34.518Z,4.82
2022-12-03T16:10:04.675Z,4.79
2022-12-03T16:12:35.656Z,4.80
2022-12-03T16:15:03.593Z,4.82
2022-12-03T16:17:31.595Z,4.84
2022-12-03T16:19:59.596Z,4.88
2022-12-03T16:22:27.635Z,4.91
2022-12-03T16:24:55.546Z,4.93
2022-12-03T16:27:25.983Z,4.95
2022-12-03T16:29:56.140Z,4.95
2022-12-03T16:32:24.374Z,4.93
2022-12-03T16:34:52.339Z,4.93
2022-12-03T16:37:20.277Z,4.93
2022-12-03T16:39:48.920Z,4.95
2022-12-03T16:42:17.636Z,4.94
2022-12-03T16:45:15.737Z,4.88
2022-12-03T16:47:43.812Z,4.88
2022-12-03T16:50:18.711Z,4.88
2022-12-03T16:52:49.995Z,4.87
2022-12-03T16:55:18.150Z,4.85
2022-12-03T16:57:46.144Z,4.87
2022-12-03T17:00:17.321Z,4.86
2022-12-03T17:02:45.410Z,4.88
2022-12-03T17:05:13.553Z,4.91
2022-12-03T17:07:41.629Z,4.91
2022-12-03T17:10:10.570Z,4.88
2022-12-03T17:13:07.710Z,4.88
2022-12-03T17:15:28.078Z,4.87
2022-12-03T17:17:56.435Z,4.88
2022-12-03T17:20:24.363Z,4.89
2022-12-03T17:22:52.419Z,4.85
2022-12-03T17:25:20.494Z,4.83
2022-12-03T17:27:48.554Z,4.81
2022-12-03T17:30:16.926Z,4.85
2022-12-03T17:32:46.530Z,4.87
2022-12-03T17:35:14.561Z,4.88
2022-12-03T17:37:42.466Z,4.85
2022-12-03T17:40:14.435Z,4.83
2022-12-03T17:42:42.602Z,4.80
2022-12-03T17:45:11.547Z,4.78
2022-12-03T17:47:39.748Z,4.82
2022-12-03T17:50:10.332Z,4.78
2022-12-03T17:52:38.343Z,4.73
2022-12-03T17:55:14.233Z,4.65
2022-12-03T17:57:45.973Z,4.61
2022-12-03T18:00:14.675Z,4.59
2022-12-03T18:02:42.708Z,4.49
2022-12-03T18:05:13.124Z,4.53
2022-12-03T18:07:41.261Z,4.48
2022-12-03T18:10:09.736Z,4.58
2022-12-03T18:12:37.773Z,4.62
2022-12-03T18:15:06.548Z,4.61
2022-12-03T18:17:34.627Z,4.59
2022-12-03T18:20:02.729Z,4.61
2022-12-03T18:22:32.471Z,4.68
2022-12-03T18:25:00.654Z,4.76
2022-12-03T18:27:28.846Z,4.82
2022-12-03T18:29:57.494Z,4.82
2022-12-03T18:32:29.285Z,4.82
2022-12-03T18:34:58.898Z,4.85
2022-12-03T18:37:29.905Z,4.83
2022-12-03T18:40:00.174Z,4.76
2022-12-03T18:42:28.422Z,4.69
2022-12-03T18:44:57.778Z,4.62
2022-12-03T18:47:28.534Z,4.59
2022-12-03T18:49:57.792Z,4.61
2022-12-03T18:52:26.070Z,4.61
2022-12-03T18:54:55.294Z,4.61
2022-12-03T18:57:24.801Z,4.60
2022-12-03T18:59:53.305Z,4.62
2022-12-03T19:05:11.342Z,4.57
2022-12-03T19:07:39.586Z,4.57
2022-12-03T19:10:09.020Z,4.57
2022-12-03T19:12:39.055Z,4.50
2022-12-03T19:15:08.351Z,4.48
2022-12-03T19:17:36.366Z,4.52
2022-12-03T19:20:05.308Z,4.49
2022-12-03T19:22:33.351Z,4.49
2022-12-03T19:25:01.292Z,4.52
2022-12-03T19:27:32.668Z,4.47
2022-12-03T19:30:01.972Z,4.48
2022-12-03T19:32:30.048Z,4.53
2022-12-03T19:34:58.080Z,4.55
2022-12-03T19:37:26.032Z,4.47
2022-12-03T19:39:56.857Z,4.47
2022-12-03T19:42:25.353Z,4.47
2022-12-03T19:44:53.313Z,4.40
2022-12-03T19:47:24.694Z,4.41
2022-12-03T19:49:54.223Z,4.42
2022-12-03T19:52:22.332Z,4.42
2022-12-03T19:54:50.335Z,4.49
2022-12-03T19:57:23.206Z,4.49
2022-12-03T19:59:52.095Z,4.53
2022-12-03T20:02:20.560Z,4.56
2022-12-03T20:04:50.077Z,4.61
2022-12-03T20:07:18.138Z,4.62
2022-12-03T20:09:46.163Z,4.64
2022-12-03T20:12:14.146Z,4.73
2022-12-03T20:14:42.173Z,4.83
2022-12-03T20:17:10.204Z,4.89
2022-12-03T20:19:38.273Z,4.93
2022-12-03T20:22:07.603Z,4.89
2022-12-03T20:24:35.544Z,4.80
2022-12-03T20:27:03.645Z,4.68
2022-12-03T20:29:31.722Z,4.63
2022-12-03T20:32:00.559Z,4.59
2022-12-03T20:34:28.696Z,4.60
2022-12-03T20:36:56.645Z,4.61
2022-12-03T20:39:25.971Z,4.58
2022-12-03T20:41:53.936Z,4.58
2022-12-03T20:44:21.855Z,4.54
2022-12-03T20:46:49.830Z,4.53
2022-12-03T20:49:17.868Z,4.56
2022-12-03T20:51:45.836Z,4.57
2022-12-03T20:54:13.893Z,4.61
2022-12-03T20:56:43.210Z,4.61
2022-12-03T20:59:13.381Z,4.62
2022-12-03T21:01:42.060Z,4.63
2022-12-03T21:04:11.257Z,4.63
2022-12-03T21:06:42.034Z,4.66
2022-12-03T21:09:11.489Z,4.69
2022-12-03T21:11:42.354Z,4.70
2022-12-03T21:14:12.466Z,4.69
2022-12-03T21:19:30.171Z,4.76
2022-12-03T21:21:58.302Z,4.80
2022-12-03T21:24:26.266Z,4.83
2022-12-03T21:26:54.529Z,4.82
2022-12-03T21:29:24.098Z,4.80
2022-12-03T21:31:52.277Z,4.72
2022-12-03T21:34:20.412Z,4.69
2022-12-03T21:36:48.440Z,4.63
2022-12-03T21:39:16.531Z,4.62
2022-12-03T21:42:36.203Z,4.58
2022-12-03T21:44:35.066Z,4.56
2022-12-03T21:47:12.049Z,4.59
2022-12-03T21:49:42.451Z,4.62
2022-12-03T21:52:10.947Z,4.64
2022-12-03T21:54:38.933Z,4.64
2022-12-03T21:57:06.952Z,4.63
2022-12-03T21:59:36.365Z,4.59
2022-12-03T22:02:04.639Z,4.53
2022-12-03T22:04:32.766Z,4.52
2022-12-03T22:07:00.728Z,4.57
2022-12-03T22:09:28.943Z,4.62
2022-12-03T22:11:59.287Z,4.67
2022-12-03T22:14:27.381Z,4.66
2022-12-03T22:16:56.952Z,4.60
2022-12-03T22:19:24.977Z,4.61
2022-12-03T22:21:53.446Z,4.62
2022-12-03T22:24:21.510Z,4.62
2022-12-03T22:26:49.442Z,4.63
2022-12-03T22:29:17.351Z,4.60
2022-12-03T22:31:45.381Z,4.56
2022-12-03T22:34:14.797Z,4.52
2022-12-03T22:36:42.736Z,4.57
2022-12-03T22:39:10.679Z,4.49
2022-12-03T22:41:38.667Z,4.42
2022-12-03T22:44:07.090Z,4.40
2022-12-03T22:46:35.132Z,4.41
2022-12-03T22:49:07.097Z,4.39
2022-12-03T22:51:37.032Z,4.42
2022-12-03T22:54:05.743Z,4.49
2022-12-03T22:56:33.963Z,4.45
2022-12-03T22:59:01.939Z,4.48
2022-12-03T23:01:31.416Z,4.48
2022-12-03T23:03:59.985Z,4.57
2022-12-03T23:06:29.222Z,4.64
2022-12-03T23:08:59.897Z,4.65
2022-12-03T23:11:28.663Z,4.69
2022-12-03T23:13:56.607Z,4.77
2022-12-03T23:16:27.250Z,4.84
2022-12-03T23:18:55.634Z,4.87
2022-12-03T23:21:29.782Z,4.89
2022-12-03T23:24:00.159Z,4.95
2022-12-03T23:26:29.241Z,4.97
2022-12-03T23:28:57.679Z,4.99
2022-12-03T23:31:27.328Z,5.06
2022-12-03T23:33:56.254Z,5.10
2022-12-03T23:36:25.546Z,5.06
2022-12-03T23:38:53.589Z,5.03
2022-12-03T23:41:26.648Z,5.07
2022-12-03T23:43:54.950Z,5.15
2022-12-03T23:46:25.408Z,5.18
2022-12-03T23:48:53.937Z,5.18
2022-12-03T23:51:23.816Z,5.23
2022-12-03T23:53:52.866Z,5.23
2022-12-03T23:56:23.761Z,5.23
2022-12-03T23:58:52.462Z,5.26
